Time;durP1;ratioP1;P1;durP2;ratioP2;P2;SDS_P1;SDS_P2;PMS_P1;PMS_P2;Temp;Humidity;BMP_temperature;BMP_pressure;BME280_temperature;BME280_humidity;BME280_pressure;Samples;Min_cycle;Max_cycle;Signal;HPM_P1;HPM_P2
2021/10/28 00:13:41;;;;;;;6.32;3.67;;;;;;;7.91;100.00;101303.44;5269913;28;20035;-80
2021/10/28 00:16:16;;;;;;;5.82;3.50;;;;;;;7.90;100.00;101296.53;5270081;28;20495;-80
2021/10/28 00:18:49;;;;;;;5.50;3.80;;;;;;;7.93;100.00;101296.50;5270620;28;20024;-79
2021/10/28 00:21:20;;;;;;;9.32;4.15;;;;;;;7.83;100.00;101294.03;5270177;28;20023;-79
2021/10/28 00:23:51;;;;;;;9.88;4.13;;;;;;;7.75;100.00;101288.94;5252140;28;20078;-80
2021/10/28 00:26:22;;;;;;;5.63;3.85;;;;;;;7.70;100.00;101295.91;5259432;28;20024;-81
2021/10/28 00:28:58;;;;;;;7.32;4.35;;;;;;;7.77;100.00;101292.38;5256491;28;20049;-80
2021/10/28 00:31:30;;;;;;;9.18;4.40;;;;;;;7.78;100.00;101301.03;5270578;28;20031;-80
2021/10/28 00:34:01;;;;;;;6.35;4.05;;;;;;;7.81;100.00;101299.25;5269784;28;20107;-81
2021/10/28 00:36:31;;;;;;;5.85;4.05;;;;;;;7.91;100.00;101300.00;5267979;28;20043;-81
2021/10/28 00:39:03;;;;;;;7.28;4.18;;;;;;;7.84;100.00;101295.75;5251731;28;20526;-80
2021/10/28 00:41:35;;;;;;;6.13;4.28;;;;;;;7.95;100.00;101296.47;5254203;28;20392;-81
2021/10/28 00:44:07;;;;;;;6.72;3.88;;;;;;;7.95;100.00;101297.34;5269985;28;20118;-80
2021/10/28 00:46:39;;;;;;;8.35;4.13;;;;;;;7.98;100.00;101294.69;5259514;28;20111;-80
2021/10/28 00:49:11;;;;;;;6.43;4.40;;;;;;;8.00;100.00;101297.25;5270480;28;20034;-80
2021/10/28 00:51:42;;;;;;;7.25;3.95;;;;;;;7.96;100.00;101295.59;5253649;28;20073;-80
2021/10/28 00:54:15;;;;;;;9.90;4.43;;;;;;;8.09;100.00;101294.53;5270859;28;20089;-81
2021/10/28 00:56:46;;;;;;;8.13;4.57;;;;;;;8.05;100.00;101296.31;5262935;28;20073;-80
2021/10/28 00:59:16;;;;;;;8.73;4.72;;;;;;;8.09;100.00;101295.41;5261333;28;20028;-81
2021/10/28 01:01:46;;;;;;;8.88;4.65;;;;;;;8.03;100.00;101297.25;5270865;28;20055;-80
2021/10/28 01:04:17;;;;;;;7.25;4.43;;;;;;;8.08;100.00;101293.66;5270443;28;20046;-81
2021/10/28 01:06:47;;;;;;;11.18;4.80;;;;;;;8.03;100.00;101297.25;5270791;28;20065;-80
2021/10/28 01:09:21;;;;;;;7.97;4.28;;;;;;;8.04;100.00;101289.38;5270938;28;20047;-80
2021/10/28 01:11:53;;;;;;;6.53;4.15;;;;;;;8.02;100.00;101290.31;5270866;28;20031;-80
2021/10/28 01:14:23;;;;;;;7.60;4.25;;;;;;;8.06;100.00;101282.41;5268630;28;20031;-80
2021/10/28 01:16:55;;;;;;;7.57;4.70;;;;;;;8.00;100.00;101284.25;5268986;28;20028;-80
2021/10/28 01:19:25;;;;;;;9.00;4.88;;;;;;;7.97;100.00;101289.50;5269407;28;20483;-80
2021/10/28 01:21:56;;;;;;;7.53;4.70;;;;;;;8.00;100.00;101286.84;5268865;28;20031;-81
2021/10/28 01:24:26;;;;;;;10.10;4.70;;;;;;;8.13;100.00;101288.41;5269035;28;20028;-80
2021/10/28 01:27:08;;;;;;;7.95;4.30;;;;;;;8.07;100.00;101291.94;5268333;28;20032;-80
2021/10/28 01:29:41;;;;;;;6.10;4.40;;;;;;;8.09;100.00;101286.72;5259404;28;20042;-81
2021/10/28 01:32:11;;;;;;;8.00;4.22;;;;;;;8.00;100.00;101287.72;5269696;28;20119;-80
2021/10/28 01:34:46;;;;;;;9.15;4.68;;;;;;;7.98;100.00;101286.00;5259345;28;20063;-81
2021/10/28 01:37:16;;;;;;;8.40;4.53;;;;;;;7.94;100.00;101281.72;5258566;28;20142;-80
2021/10/28 01:39:47;;;;;;;9.25;4.97;;;;;;;8.00;100.00;101281.63;5259341;28;20313;-80
2021/10/28 01:42:17;;;;;;;8.35;4.43;;;;;;;7.86;100.00;101289.66;5268102;28;20149;-80
2021/10/28 01:44:47;;;;;;;9.35;4.65;;;;;;;7.79;100.00;101287.13;5266105;28;20036;-80
2021/10/28 01:47:18;;;;;;;7.05;4.90;;;;;;;7.78;100.00;101285.41;5258176;28;20020;-80
2021/10/28 01:49:48;;;;;;;7.85;4.32;;;;;;;7.82;100.00;101287.97;5267813;28;20529;-81
2021/10/28 01:52:18;;;;;;;7.80;4.57;;;;;;;7.76;100.00;101280.25;5258726;28;20529;-80
2021/10/28 01:54:49;;;;;;;6.82;4.35;;;;;;;7.77;100.00;101279.38;5258441;28;20027;-80
2021/10/28 01:57:21;;;;;;;7.28;4.32;;;;;;;7.73;100.00;101275.06;5259222;28;20050;-80
2021/10/28 01:59:51;;;;;;;6.63;4.10;;;;;;;7.82;100.00;101276.69;5257482;28;20237;-80
2021/10/28 02:02:22;;;;;;;7.88;4.65;;;;;;;7.75;100.00;101273.34;5264584;28;20725;-81
2021/10/28 02:04:52;;;;;;;6.53;4.63;;;;;;;7.77;100.00;101276.78;5258665;28;20111;-81
2021/10/28 02:07:22;;;;;;;6.63;4.40;;;;;;;7.68;100.00;101273.44;5268427;28;20027;-80
2021/10/28 02:09:53;;;;;;;7.72;4.60;;;;;;;7.65;100.00;101270.84;5259764;28;20028;-80
2021/10/28 02:12:24;;;;;;;7.85;4.40;;;;;;;7.47;100.00;101281.47;5259509;28;20025;-80
2021/10/28 02:14:54;;;;;;;8.60;4.70;;;;;;;7.31;100.00;101277.31;5268501;28;20047;-80
2021/10/28 02:17:25;;;;;;;7.28;4.68;;;;;;;7.28;100.00;101278.22;5269068;28;20047;-80
2021/10/28 02:19:55;;;;;;;9.00;4.90;;;;;;;7.28;100.00;101279.97;5258043;28;20504;-80
2021/10/28 02:22:25;;;;;;;8.20;4.50;;;;;;;7.32;100.00;101287.72;5250573;28;20051;-80
2021/10/28 02:24:56;;;;;;;9.57;4.40;;;;;;;7.23;100.00;101281.75;5257368;28;20047;-81
2021/10/28 02:27:27;;;;;;;8.27;4.53;;;;;;;7.19;100.00;101287.00;5267901;28;20035;-81
2021/10/28 02:29:57;;;;;;;7.22;4.60;;;;;;;7.10;100.00;101272.34;5267915;28;20087;-80
2021/10/28 02:32:27;;;;;;;6.85;4.55;;;;;;;7.14;100.00;101281.84;5258692;28;20024;-80
2021/10/28 02:34:58;;;;;;;9.55;4.80;;;;;;;7.08;100.00;101281.06;5257382;28;20040;-81
2021/10/28 02:37:28;;;;;;;9.15;4.40;;;;;;;7.14;100.00;101279.25;5267176;28;20087;-80
2021/10/28 02:39:59;;;;;;;7.45;4.68;;;;;;;7.14;100.00;101283.59;5257730;28;20028;-80
2021/10/28 02:42:29;;;;;;;7.80;4.60;;;;;;;7.11;100.00;101273.22;5267256;28;20391;-81
2021/10/28 02:44:59;;;;;;;7.68;4.45;;;;;;;7.06;100.00;101275.88;5256927;28;20027;-81
2021/10/28 02:47:30;;;;;;;8.27;4.32;;;;;;;6.99;100.00;101281.16;5267113;28;20111;-81
2021/10/28 02:50:00;;;;;;;6.35;4.43;;;;;;;7.07;100.00;101279.34;5267063;28;20110;-81
2021/10/28 02:52:30;;;;;;;6.82;4.55;;;;;;;6.89;100.00;101272.59;5249757;28;20047;-81
2021/10/28 02:55:04;;;;;;;7.72;4.80;;;;;;;7.00;100.00;101278.56;5267403;28;20050;-80
2021/10/28 02:57:34;;;;;;;9.00;5.28;;;;;;;7.04;100.00;101275.03;5266364;28;20032;-80
2021/10/28 03:00:05;;;;;;;10.02;5.25;;;;;;;6.95;100.00;101267.31;5258048;28;20077;-80
2021/10/28 03:02:36;;;;;;;11.75;5.40;;;;;;;7.08;100.00;101263.72;5267380;28;20024;-80
2021/10/28 03:05:06;;;;;;;7.97;4.80;;;;;;;7.02;100.00;101268.13;5260952;28;20144;-80
2021/10/28 03:07:38;;;;;;;8.23;5.18;;;;;;;6.99;100.00;101261.22;5262648;28;20068;-80
2021/10/28 03:10:10;;;;;;;9.30;5.22;;;;;;;6.97;100.00;101259.50;5271344;28;20034;-80
2021/10/28 03:12:42;;;;;;;8.07;4.70;;;;;;;6.90;100.00;101256.13;5261532;28;20024;-81
2021/10/28 03:15:14;;;;;;;7.78;4.95;;;;;;;6.79;100.00;101259.69;5260241;28;20039;-80
2021/10/28 03:26:05;;;;;;;8.52;4.88;;;;;;;6.90;100.00;101265.66;5263723;28;20054;-81
2021/10/28 03:28:35;;;;;;;8.20;5.28;;;;;;;7.01;100.00;101262.06;5259955;28;20024;-80
2021/10/28 03:31:06;;;;;;;8.10;4.80;;;;;;;7.13;100.00;101268.88;5257755;28;20028;-80
2021/10/28 03:33:38;;;;;;;9.80;6.18;;;;;;;7.15;100.00;101269.72;5270215;28;20024;-80
2021/10/28 03:36:13;;;;;;;7.65;5.32;;;;;;;7.14;100.00;101265.41;5260346;28;20024;-80
2021/10/28 03:38:55;;;;;;;8.90;5.80;;;;;;;7.18;100.00;101269.69;5260342;28;20027;-80
2021/10/28 03:42:02;;;;;;;7.95;5.28;;;;;;;7.14;100.00;101273.19;5267460;28;20028;-80
2021/10/28 03:58:41;;;;;;;8.43;5.43;;;;;;;7.12;100.00;101269.75;5269322;28;20043;-80
2021/10/28 04:02:24;;;;;;;9.25;5.55;;;;;;;7.08;100.00;101274.13;5272512;28;20081;-80
2021/10/28 04:07:31;;;;;;;9.30;6.05;;;;;;;7.24;100.00;101275.69;5272486;28;20615;-80
2021/10/28 04:20:54;;;;;;;10.90;6.57;;;;;;;7.17;100.00;101268.84;5267811;28;20031;-80
2021/10/28 04:29:05;;;;;;;10.57;6.50;;;;;;;7.40;100.00;101270.31;5271127;28;20038;-80
2021/10/28 04:31:36;;;;;;;12.95;7.70;;;;;;;7.34;100.00;101266.91;5261542;28;20027;-80
2021/10/28 04:34:10;;;;;;;12.23;7.47;;;;;;;7.29;100.00;101261.75;5261764;28;20028;-80
2021/10/28 04:36:40;;;;;;;15.85;7.97;;;;;;;7.21;100.00;101265.31;5261622;28;20096;-80
2021/10/28 04:39:10;;;;;;;14.68;7.93;;;;;;;7.15;100.00;101260.19;5261861;28;20550;-80
2021/10/28 04:41:41;;;;;;;10.85;6.90;;;;;;;7.16;100.00;101263.66;5262039;28;20027;-80
2021/10/28 04:44:12;;;;;;;12.02;7.28;;;;;;;6.98;100.00;101263.84;5253088;28;20027;-80
2021/10/28 04:46:42;;;;;;;12.10;7.60;;;;;;;6.95;100.00;101261.28;5271430;28;20039;-80
2021/10/28 04:49:12;;;;;;;11.63;7.63;;;;;;;6.92;100.00;101261.31;5271621;28;20024;-80
2021/10/28 04:51:43;;;;;;;12.68;7.63;;;;;;;6.98;100.00;101256.03;5254063;28;20035;-80
2021/10/28 04:54:13;;;;;;;13.45;8.23;;;;;;;6.95;100.00;101250.88;5260865;28;20028;-80
2021/10/28 04:56:43;;;;;;;10.45;6.63;;;;;;;6.97;100.00;101260.34;5271058;28;20024;-80
2021/10/28 04:59:14;;;;;;;11.18;7.47;;;;;;;6.82;100.00;101259.66;5261919;28;20284;-80
2021/10/28 05:01:45;;;;;;;12.77;7.53;;;;;;;6.69;100.00;101247.66;5271864;28;20080;-80
2021/10/28 05:04:15;;;;;;;11.10;7.07;;;;;;;6.76;100.00;101249.34;5270631;28;20114;-80
2021/10/28 05:06:46;;;;;;;9.00;6.07;;;;;;;6.70;100.00;101246.78;5260949;28;20051;-80
2021/10/28 05:09:18;;;;;;;14.52;6.57;;;;;;;6.64;100.00;101250.31;5267415;28;20568;-80
2021/10/28 05:11:48;;;;;;;11.50;7.05;;;;;;;6.61;100.00;101249.47;5267347;28;20039;-80
2021/10/28 05:14:19;;;;;;;13.85;7.63;;;;;;;6.66;100.00;101242.50;5268421;28;20031;-80
2021/10/28 05:16:55;;;;;;;11.30;7.38;;;;;;;6.72;100.00;101239.84;5277475;28;20020;-80
2021/10/28 05:19:29;;;;;;;11.20;6.63;;;;;;;6.64;100.00;101233.88;5270517;28;20047;-80
2021/10/28 05:21:59;;;;;;;11.18;6.80;;;;;;;6.52;100.00;101239.16;5259669;28;20031;-80
2021/10/28 05:24:29;;;;;;;14.52;7.32;;;;;;;6.54;100.00;101237.41;5259856;28;20044;-80
2021/10/28 05:27:00;;;;;;;14.23;7.63;;;;;;;6.58;100.00;101241.72;5269580;28;20024;-80
2021/10/28 05:29:30;;;;;;;12.70;7.47;;;;;;;6.62;100.00;101240.81;5260049;28;20043;-80
2021/10/28 05:32:00;;;;;;;12.05;7.38;;;;;;;6.62;100.00;101230.41;5260532;28;20046;-81
2021/10/28 05:34:31;;;;;;;11.88;7.03;;;;;;;6.59;100.00;101236.50;5256994;28;20092;-81
2021/10/28 05:37:01;;;;;;;13.18;7.47;;;;;;;6.57;100.00;101229.63;5268584;28;20028;-81
2021/10/28 05:39:31;;;;;;;11.73;6.82;;;;;;;6.62;100.00;101230.41;5269350;28;20039;-81
2021/10/28 05:42:02;;;;;;;12.20;7.63;;;;;;;6.60;100.00;101233.03;5258374;28;20112;-81
2021/10/28 05:44:32;;;;;;;12.73;7.45;;;;;;;6.60;100.00;101226.97;5263774;28;20028;-81
2021/10/28 05:47:03;;;;;;;10.98;7.35;;;;;;;6.62;100.00;101227.81;5258911;28;20024;-81
2021/10/28 05:49:33;;;;;;;12.93;7.35;;;;;;;6.60;100.00;101230.41;5259777;28;20081;-81
2021/10/28 05:52:04;;;;;;;16.60;8.70;;;;;;;6.65;100.00;101227.78;5251013;28;20119;-81
2021/10/28 05:54:34;;;;;;;12.73;8.45;;;;;;;6.59;100.00;101231.31;5268233;28;20024;-81
2021/10/28 05:57:04;;;;;;;11.52;7.80;;;;;;;6.53;100.00;101225.28;5268342;28;20024;-81
2021/10/28 05:59:35;;;;;;;12.65;7.32;;;;;;;6.64;100.00;101224.34;5258073;28;20019;-81
2021/10/28 06:02:05;;;;;;;11.65;7.40;;;;;;;6.62;100.00;101220.88;5268200;28;20093;-81
2021/10/28 06:04:35;;;;;;;14.38;7.85;;;;;;;6.72;100.00;101221.66;5267377;28;20499;-81
2021/10/28 06:07:05;;;;;;;10.02;6.88;;;;;;;6.65;100.00;101220.00;5258667;28;20034;-80
2021/10/28 06:09:36;;;;;;;12.98;7.82;;;;;;;6.48;100.00;101222.75;5269026;28;20294;-81
2021/10/28 06:12:07;;;;;;;12.55;7.10;;;;;;;6.65;100.00;101214.81;5257863;28;20077;-80
2021/10/28 06:14:38;;;;;;;11.45;7.20;;;;;;;6.52;100.00;101216.66;5257443;28;20483;-81
2021/10/28 06:17:10;;;;;;;10.27;6.63;;;;;;;6.38;100.00;101217.63;5258675;28;20031;-81
2021/10/28 06:19:40;;;;;;;10.98;7.05;;;;;;;6.31;100.00;101224.66;5267416;28;20107;-80
2021/10/28 06:22:11;;;;;;;11.07;6.47;;;;;;;6.40;100.00;101208.97;5254300;28;20684;-80
2021/10/28 06:24:41;;;;;;;9.43;5.85;;;;;;;6.35;100.00;101223.75;5258070;28;20078;-81
2021/10/28 06:27:11;;;;;;;8.55;5.78;;;;;;;6.14;100.00;101221.31;5268748;28;20028;-81
2021/10/28 06:29:41;;;;;;;11.07;6.32;;;;;;;6.24;100.00;101216.91;5258926;28;20043;-81
2021/10/28 06:32:13;;;;;;;12.05;7.25;;;;;;;6.31;100.00;101223.75;5268316;28;20024;-81
2021/10/28 06:34:45;;;;;;;11.77;7.05;;;;;;;6.28;100.00;101227.25;5267717;28;20357;-81
2021/10/28 06:37:17;;;;;;;12.40;7.97;;;;;;;6.29;100.00;101228.94;5268039;28;20486;-80
2021/10/28 06:39:47;;;;;;;11.18;7.60;;;;;;;6.34;100.00;101215.94;5257643;28;20027;-81
2021/10/28 06:42:17;;;;;;;11.25;7.47;;;;;;;6.42;100.00;101216.75;5268233;28;20034;-80
2021/10/28 06:44:47;;;;;;;11.15;7.18;;;;;;;6.46;100.00;101213.25;5256670;28;20479;-80
2021/10/28 06:47:18;;;;;;;11.65;7.53;;;;;;;6.51;100.00;101222.72;5258056;28;20118;-81
2021/10/28 06:49:48;;;;;;;13.70;7.88;;;;;;;6.63;100.00;101226.94;5267936;28;20035;-80
2021/10/28 06:52:18;;;;;;;14.90;8.75;;;;;;;6.71;100.00;101225.13;5267309;28;20028;-81
2021/10/28 06:54:51;;;;;;;17.33;9.43;;;;;;;6.84;100.00;101232.81;5256992;28;20054;-80
2021/10/28 06:57:59;;;;;;;14.23;8.70;;;;;;;7.01;100.00;101230.03;5256430;28;20179;-81
2021/10/28 07:03:12;;;;;;;14.43;8.90;;;;;;;7.19;100.00;101224.63;5267083;28;20522;-80
2021/10/28 07:05:43;;;;;;;15.27;8.55;;;;;;;7.25;100.00;101219.38;5256278;28;20020;-80
2021/10/28 07:08:14;;;;;;;16.00;8.82;;;;;;;7.31;100.00;101221.00;5267398;28;20445;-80
2021/10/28 07:10:45;;;;;;;18.15;10.10;;;;;;;7.49;100.00;101219.94;5256729;28;20032;-80
2021/10/28 07:13:19;;;;;;;20.30;10.02;;;;;;;7.54;100.00;101224.16;5257494;28;20042;-80
2021/10/28 07:16:14;;;;;;;14.73;9.30;;;;;;;7.63;100.00;101221.47;5266182;28;20418;-80
2021/10/28 07:19:02;;;;;;;17.45;9.40;;;;;;;7.73;100.00;101215.22;5265887;28;20168;-80
2021/10/28 07:21:45;;;;;;;18.98;9.55;;;;;;;7.82;100.00;101224.66;5246998;28;20054;-80
2021/10/28 07:27:17;;;;;;;14.63;9.05;;;;;;;8.03;100.00;101220.00;5261226;28;20604;-82
2021/10/28 07:33:09;;;;;;;14.20;8.57;;;;;;;8.30;100.00;101214.41;5270352;28;20070;-82
2021/10/28 07:55:25;;;;;;;6.72;5.00;;;;;;;11.15;100.00;101194.09;5263196;28;20042;-82
2021/10/28 08:14:33;;;;;;;6.57;4.05;;;;;;;15.06;86.36;101149.03;5273808;28;20038;-83
2021/10/28 08:17:21;;;;;;;7.20;3.58;;;;;;;15.71;83.43;101135.47;5252695;28;20031;-82
2021/10/28 08:19:52;;;;;;;5.15;3.70;;;;;;;16.21;82.51;101126.81;5263512;28;20110;-81
2021/10/28 08:22:30;;;;;;;5.25;3.78;;;;;;;16.59;80.00;101124.91;5263214;28;20024;-82
2021/10/28 08:30:28;;;;;;;5.75;3.67;;;;;;;17.30;75.92;101128.13;5274616;28;20350;-82
2021/10/28 08:32:58;;;;;;;5.85;3.47;;;;;;;17.68;77.39;101111.03;5266240;28;20099;-83
2021/10/28 08:35:29;;;;;;;4.68;3.35;;;;;;;17.99;75.94;101100.41;5274359;28;20078;-83
2021/10/28 08:38:00;;;;;;;7.35;3.30;;;;;;;17.73;74.36;101106.31;5274834;28;20024;-81
2021/10/28 08:40:31;;;;;;;5.75;3.80;;;;;;;15.70;84.99;101113.53;5264546;28;20624;-83
2021/10/28 08:43:03;;;;;;;6.15;3.83;;;;;;;14.65;88.95;101111.44;5263478;28;20031;-82
2021/10/28 08:45:36;;;;;;;7.78;4.32;;;;;;;13.79;94.23;101104.53;5273813;28;20039;-82
2021/10/28 08:48:08;;;;;;;5.82;4.05;;;;;;;13.73;96.01;101107.41;5262686;28;20038;-84
2021/10/28 08:56:00;;;;;;;6.78;4.38;;;;;;;13.12;100.00;101107.19;5269525;28;20035;-82
2021/10/28 09:23:52;;;;;;;8.15;5.05;;;;;;;13.32;100.00;101102.06;5284565;28;20042;-77
2021/10/28 09:26:05;;;;;;;6.55;4.70;;;;;;;13.38;100.00;101080.81;5281656;28;20115;-76
2021/10/28 09:28:39;;;;;;;8.40;4.70;;;;;;;13.42;100.00;101082.41;5281977;28;20035;-76
2021/10/28 09:31:16;;;;;;;7.25;5.13;;;;;;;13.48;100.00;101084.78;5283982;28;20051;-77
2021/10/28 09:34:11;;;;;;;7.72;4.78;;;;;;;13.62;100.00;101090.34;5279906;28;20051;-78
2021/10/28 09:48:34;;;;;;;6.28;4.32;;;;;;;13.79;100.00;101082.66;5285220;28;20042;-80
2021/10/28 09:51:05;;;;;;;6.22;4.07;;;;;;;13.91;100.00;101092.69;5285064;28;20054;-80
2021/10/28 09:59:34;;;;;;;6.47;3.70;;;;;;;13.86;100.00;101092.00;5281880;28;20055;-77
2021/10/28 10:02:13;;;;;;;6.65;4.03;;;;;;;13.77;100.00;101087.13;5284733;28;20024;-76
2021/10/28 10:04:45;;;;;;;6.03;3.90;;;;;;;13.89;100.00;101082.22;5283915;28;20051;-78
2021/10/28 10:07:17;;;;;;;5.18;3.47;;;;;;;14.00;100.00;101080.00;5284626;28;20402;-78
2021/10/28 10:09:48;;;;;;;5.40;3.83;;;;;;;14.19;100.00;101088.00;5284461;28;20466;-78
2021/10/28 10:12:19;;;;;;;5.75;3.88;;;;;;;14.17;100.00;101087.22;5284302;28;20030;-76
2021/10/28 10:14:49;;;;;;;5.40;3.53;;;;;;;14.26;100.00;101084.22;5284192;28;20110;-77
2021/10/28 10:17:19;;;;;;;5.10;3.42;;;;;;;14.28;100.00;101079.75;5285146;28;20039;-76
2021/10/28 10:19:51;;;;;;;5.55;3.60;;;;;;;14.38;100.00;101075.78;5283656;28;20513;-76
2021/10/28 10:25:50;;;;;;;5.47;3.60;;;;;;;14.38;100.00;101075.78;5283934;28;20081;-76
2021/10/28 11:27:19;;;;;;;6.90;3.47;;;;;;;15.00;100.00;101012.38;5282293;28;20070;-78
2021/10/28 11:31:07;;;;;;;5.97;3.42;;;;;;;15.14;99.29;101009.09;5282635;28;20059;-79
2021/10/28 12:45:19;;;;;;;1.98;1.10;;;;;;;15.48;91.14;100896.81;5282639;28;20047;-78
2021/10/28 13:06:39;;;;;;;2.75;0.80;;;;;;;16.17;87.02;100877.34;5282753;28;20027;-78
2021/10/28 13:48:38;;;;;;;2.50;1.27;;;;;;;16.26;88.68;100831.16;5261149;28;20039;-77
2021/10/28 13:59:36;;;;;;;3.63;1.70;;;;;;;16.08;91.52;100803.97;5284701;28;20020;-75
2021/10/28 14:24:46;;;;;;;3.50;1.77;;;;;;;15.55;96.81;100774.38;5280267;28;20470;-78
2021/10/28 14:27:35;;;;;;;3.38;1.40;;;;;;;15.38;97.69;100779.66;5284318;28;20069;-78
2021/10/28 14:38:44;;;;;;;1.85;1.30;;;;;;;14.92;100.00;100769.75;5280577;28;20027;-78
2021/10/28 15:29:14;;;;;;;1.40;0.90;;;;;;;14.19;100.00;100719.97;5278086;28;20069;-80
2021/10/28 15:40:09;;;;;;;2.25;0.90;;;;;;;14.04;100.00;100707.50;5278432;28;20130;-79
2021/10/28 16:21:47;;;;;;;2.22;1.20;;;;;;;12.81;100.00;100693.94;5283249;28;20480;-80
2021/10/28 16:21:51;;;;;;;2.13;1.10;;;;;;;12.10;100.00;100694.25;5282127;28;20042;-78
2021/10/28 16:24:24;;;;;;;2.40;1.40;;;;;;;11.96;100.00;100687.88;5280185;28;20106;-77
2021/10/28 16:26:56;;;;;;;3.22;1.50;;;;;;;11.95;100.00;100692.25;5278600;28;20107;-77
2021/10/28 16:29:27;;;;;;;3.53;1.45;;;;;;;11.83;100.00;100697.97;5280969;28;20028;-78
2021/10/28 16:31:58;;;;;;;2.75;1.60;;;;;;;11.82;100.00;100690.16;5281166;28;20050;-77
2021/10/28 16:34:29;;;;;;;2.25;1.20;;;;;;;11.74;100.00;100698.31;5279216;28;20045;-77
2021/10/28 16:36:59;;;;;;;2.50;1.42;;;;;;;11.68;100.00;100682.84;5278884;28;20011;-78
2021/10/28 16:39:30;;;;;;;3.13;1.40;;;;;;;11.63;100.00;100683.94;5277891;28;20413;-80
2021/10/28 16:42:00;;;;;;;4.38;1.50;;;;;;;11.53;100.00;100686.03;5282607;28;20027;-80
2021/10/28 16:44:31;;;;;;;3.17;1.40;;;;;;;11.51;100.00;100685.22;5282817;28;20469;-80
2021/10/28 16:47:01;;;;;;;3.75;1.50;;;;;;;11.45;100.00;100682.81;5284635;28;20088;-80
2021/10/28 16:49:32;;;;;;;2.38;1.35;;;;;;;11.37;100.00;100695.34;5264959;28;20050;-80
2021/10/28 16:52:02;;;;;;;4.78;1.50;;;;;;;11.29;100.00;100681.69;5281078;28;20038;-80
2021/10/28 16:54:33;;;;;;;2.50;1.42;;;;;;;11.22;100.00;100688.06;5265899;28;20119;-80
2021/10/28 16:57:04;;;;;;;3.05;1.70;;;;;;;11.06;100.00;100686.03;5287550;28;20023;-80
2021/10/28 16:59:34;;;;;;;2.45;1.60;;;;;;;11.01;100.00;100687.97;5286139;28;20036;-80
2021/10/28 17:02:05;;;;;;;2.85;1.52;;;;;;;10.91;100.00;100680.50;5289063;28;20020;-80
2021/10/28 17:04:35;;;;;;;2.13;1.45;;;;;;;10.85;100.00;100691.19;5284452;28;20070;-80
2021/10/28 17:07:05;;;;;;;2.47;1.27;;;;;;;10.72;100.00;100684.66;5284688;28;20364;-80
2021/10/28 17:09:36;;;;;;;3.15;1.50;;;;;;;10.68;100.00;100689.13;5285649;28;20059;-80
2021/10/28 17:12:06;;;;;;;3.92;1.70;;;;;;;10.63;100.00;100690.19;5285843;28;20038;-80
2021/10/28 17:14:37;;;;;;;4.30;1.50;;;;;;;10.55;100.00;100689.63;5281525;27;20070;-80
2021/10/28 17:17:07;;;;;;;4.70;2.00;;;;;;;10.61;100.00;100684.16;5276528;28;20532;-80
2021/10/28 17:19:41;;;;;;;3.22;1.70;;;;;;;10.82;100.00;100686.06;5285688;28;20369;-80
2021/10/28 17:22:11;;;;;;;3.83;1.70;;;;;;;10.91;100.00;100675.28;5279807;28;20076;-80
2021/10/28 17:24:48;;;;;;;3.10;1.70;;;;;;;10.94;100.00;100669.94;5281119;28;20047;-80
2021/10/28 17:27:20;;;;;;;2.70;1.67;;;;;;;10.79;100.00;100675.69;5285045;28;20030;-80
2021/10/28 17:29:50;;;;;;;2.83;1.63;;;;;;;10.74;100.00;100677.63;5286436;28;20047;-80
2021/10/28 17:32:20;;;;;;;2.88;1.50;;;;;;;10.71;100.00;100677.72;5287507;28;20528;-80
2021/10/28 17:34:51;;;;;;;2.45;1.67;;;;;;;10.51;100.00;100678.41;5287654;28;20032;-80
2021/10/28 17:37:23;;;;;;;4.28;1.65;;;;;;;10.43;100.00;100671.72;5287007;28;20024;-80
2021/10/28 17:39:53;;;;;;;2.75;1.70;;;;;;;10.29;100.00;100681.75;5283011;28;20232;-80
2021/10/28 17:42:23;;;;;;;3.35;1.80;;;;;;;10.21;100.00;100673.34;5286669;28;20039;-80
2021/10/28 17:44:57;;;;;;;2.38;1.60;;;;;;;10.17;100.00;100676.97;5282625;28;20107;-80
2021/10/28 17:47:28;;;;;;;2.97;1.70;;;;;;;10.14;100.00;100669.25;5281836;28;20027;-80
2021/10/28 17:49:58;;;;;;;4.47;1.77;;;;;;;10.30;100.00;100662.56;5282388;28;20498;-79
2021/10/28 17:52:29;;;;;;;2.75;1.60;;;;;;;10.27;100.00;100660.94;5279443;28;20114;-80
2021/10/28 17:55:01;;;;;;;2.53;1.70;;;;;;;10.24;100.00;100661.06;5280987;28;20479;-79
2021/10/28 17:57:32;;;;;;;3.40;1.92;;;;;;;10.18;100.00;100660.38;5283803;28;20115;-80
2021/10/28 18:00:04;;;;;;;3.55;1.88;;;;;;;10.10;100.00;100652.81;5283911;28;20166;-80
2021/10/28 18:02:37;;;;;;;3.17;1.80;;;;;;;10.11;100.00;100656.25;5280863;28;20060;-80
2021/10/28 18:05:09;;;;;;;4.88;1.80;;;;;;;10.30;100.00;100655.59;5280979;28;20104;-80
2021/10/28 18:07:39;;;;;;;5.13;1.80;;;;;;;10.23;100.00;100658.47;5282278;28;20030;-80
2021/10/28 18:10:10;;;;;;;3.38;1.70;;;;;;;10.19;100.00;100660.31;5281463;28;20023;-79
2021/10/28 18:12:41;;;;;;;2.53;1.45;;;;;;;10.16;100.00;100662.19;5280806;28;20038;-80
2021/10/28 18:15:11;;;;;;;4.13;1.80;;;;;;;10.20;100.00;100663.81;5279934;28;20523;-80
2021/10/28 18:17:42;;;;;;;3.33;1.73;;;;;;;10.15;100.00;100660.50;5286452;28;20095;-80
2021/10/28 18:20:12;;;;;;;3.25;1.88;;;;;;;10.21;100.00;100661.16;5286556;28;20380;-80
2021/10/28 18:22:46;;;;;;;2.95;1.70;;;;;;;10.22;100.00;100667.22;5285277;28;20043;-80
2021/10/28 18:25:18;;;;;;;3.10;2.05;;;;;;;10.14;100.00;100667.47;5286236;28;20030;-80
2021/10/28 18:27:50;;;;;;;3.50;1.67;;;;;;;10.11;100.00;100664.09;5285288;28;20039;-80
2021/10/28 18:30:22;;;;;;;3.90;1.92;;;;;;;10.02;100.00;100667.84;5286551;28;20046;-80
2021/10/28 18:32:52;;;;;;;3.05;1.70;;;;;;;9.96;100.00;100661.97;5281995;28;20497;-80
2021/10/28 18:35:22;;;;;;;2.28;1.50;;;;;;;9.88;100.00;100661.31;5285789;28;20029;-80
2021/10/28 18:37:53;;;;;;;3.58;1.75;;;;;;;9.83;100.00;100660.63;5285994;28;20044;-80
2021/10/28 18:40:24;;;;;;;3.80;1.95;;;;;;;9.73;100.00;100667.03;5285790;27;20034;-80
2021/10/28 18:42:54;;;;;;;2.72;1.73;;;;;;;9.74;100.00;100673.94;5286851;28;20226;-80
2021/10/28 18:45:24;;;;;;;5.40;2.08;;;;;;;9.74;100.00;100669.59;5285701;28;20024;-80
2021/10/28 18:47:55;;;;;;;4.15;2.00;;;;;;;9.76;100.00;100672.13;5284018;28;20335;-80
2021/10/28 18:50:25;;;;;;;3.70;2.08;;;;;;;9.70;100.00;100665.38;5263464;28;20558;-80
2021/10/28 18:52:55;;;;;;;5.40;1.88;;;;;;;9.66;100.00;100670.72;5286330;28;20216;-80
2021/10/28 18:55:26;;;;;;;2.95;1.75;;;;;;;9.58;100.00;100670.09;5285979;28;20028;-80
2021/10/28 18:57:56;;;;;;;3.33;1.73;;;;;;;9.50;100.00;100659.03;5285220;28;20549;-80
2021/10/28 19:00:27;;;;;;;4.13;2.22;;;;;;;9.41;100.00;100649.75;5285903;28;20058;-80
2021/10/28 19:02:58;;;;;;;3.60;2.10;;;;;;;9.20;100.00;100634.72;5286162;28;20063;-80
2021/10/28 19:05:29;;;;;;;4.28;2.10;;;;;;;9.13;100.00;100638.38;5286123;28;20023;-80
2021/10/28 19:08:00;;;;;;;3.13;2.05;;;;;;;9.13;100.00;100632.34;5284118;28;20050;-80
2021/10/28 19:10:30;;;;;;;3.72;2.40;;;;;;;9.13;100.00;100626.25;5285217;28;20027;-80
2021/10/28 19:13:01;;;;;;;4.60;2.40;;;;;;;9.06;100.00;100630.78;5286315;28;20031;-80
2021/10/28 19:15:32;;;;;;;3.45;2.22;;;;;;;9.06;100.00;100633.41;5285312;28;20520;-80
2021/10/28 19:18:02;;;;;;;5.30;2.30;;;;;;;9.04;100.00;100626.53;5285305;28;20039;-80
2021/10/28 19:20:36;;;;;;;3.58;2.45;;;;;;;9.05;100.00;100626.47;5284760;28;20426;-80
2021/10/28 19:23:07;;;;;;;4.85;2.20;;;;;;;9.02;100.00;100623.97;5281579;28;20059;-80
2021/10/28 19:25:38;;;;;;;6.63;2.13;;;;;;;9.14;100.00;100626.22;5284440;28;20071;-80
2021/10/28 19:28:08;;;;;;;4.40;2.00;;;;;;;9.17;100.00;100623.53;5287793;28;20554;-80
2021/10/28 19:30:47;;;;;;;2.83;2.05;;;;;;;9.30;100.00;100627.50;5287440;28;20118;-80
2021/10/28 19:33:21;;;;;;;4.78;2.40;;;;;;;9.34;100.00;100626.50;5287423;28;20028;-80
2021/10/28 19:35:59;;;;;;;4.43;2.40;;;;;;;9.39;100.00;100620.25;5288470;28;20016;-80
2021/10/28 19:46:49;;;;;;;5.45;2.92;;;;;;;9.52;100.00;100620.72;5284238;28;20067;-79
2021/10/28 19:49:20;;;;;;;4.20;2.67;;;;;;;9.49;100.00;100618.22;5284175;28;20055;-79
2021/10/28 19:51:51;;;;;;;4.22;2.60;;;;;;;9.46;100.00;100621.75;5283500;28;20035;-79